Time,TemperatureF,DewpointF,PressureIn,WindDirection,WindDirectionDegrees,WindSpeedMPH,WindSpeedGustMPH,Humidity,HourlyPrecipIn,Conditions,Clouds,dailyrainin,SoftwareType,DateUTC
2013-02-26 00:00:00,40.0,26.8,29.72,ENE,67,7.0,17.0,59,0.00,,,-99.99,Weather View 32 v60,2013-02-26 05:00:00,
2013-02-26 00:05:00,40.0,27.2,29.72,ENE,67,5.0,17.0,60,0.00,,,-99.99,Weather View 32 v60,2013-02-26 05:05:00,
2013-02-26 00:10:00,40.0,27.2,29.71,East,90,7.0,17.0,60,0.00,,,-99.99,Weather View 32 v60,2013-02-26 05:10:00,
2013-02-26 00:15:00,40.0,27.2,29.71,ENE,67,8.0,17.0,60,0.00,,,-99.99,Weather View 32 v60,2013-02-26 05:15:00,
2013-02-26 00:20:00,40.0,27.2,29.70,ENE,67,9.0,17.0,60,0.00,,,-99.99,Weather View 32 v60,2013-02-26 05:20:00,
2013-02-26 00:25:00,40.0,27.2,29.70,East,90,8.0,17.0,60,0.00,,,-99.99,Weather View 32 v60,2013-02-26 05:25:00,
2013-02-26 00:30:00,40.0,26.8,29.69,ENE,67,11.0,17.0,59,0.00,,,-99.99,Weather View 32 v60,2013-02-26 05:30:00,
2013-02-26 00:35:00,40.0,27.2,29.69,East,90,5.0,17.0,60,0.00,,,-99.99,Weather View 32 v60,2013-02-26 05:35:00,
2013-02-26 00:40:00,40.0,27.2,29.68,ENE,67,10.0,17.0,60,0.00,,,-99.99,Weather View 32 v60,2013-02-26 05:40:00,
2013-02-26 00:45:00,40.0,27.2,29.68,ENE,67,10.0,17.0,60,0.00,,,-99.99,Weather View 32 v60,2013-02-26 05:45:00,
2013-02-26 00:50:00,40.0,27.2,29.67,East,90,10.0,13.0,60,0.00,,,-99.99,Weather View 32 v60,2013-02-26 05:50:00,
2013-02-26 00:55:00,40.0,27.2,29.67,ENE,67,4.0,13.0,60,0.00,,,-99.99,Weather View 32 v60,2013-02-26 05:55:00,
2013-02-26 01:00:00,40.0,27.2,29.68,ENE,67,6.0,13.0,60,0.00,,,-99.99,Weather View 32 v60,2013-02-26 06:00:00,
2013-02-26 01:05:00,40.0,27.2,29.68,East,90,5.0,13.0,60,0.00,,,-99.99,Weather View 32 v60,2013-02-26 06:05:00,
2013-02-26 01:10:00,41.0,28.6,29.67,ENE,67,6.0,13.0,61,0.00,,,-99.99,Weather View 32 v60,2013-02-26 06:10:00,
2013-02-26 01:15:00,41.0,28.2,29.67,ENE,67,10.0,13.0,60,0.00,,,-99.99,Weather View 32 v60,2013-02-26 06:15:00,
2013-02-26 01:20:00,41.0,28.6,29.67,ENE,67,8.0,13.0,61,0.00,,,-99.99,Weather View 32 v60,2013-02-26 06:20:00,
2013-02-26 01:25:00,41.0,28.6,29.67,ENE,67,9.0,13.0,61,0.00,,,-99.99,Weather View 32 v60,2013-02-26 06:25:00,
2013-02-26 01:30:00,41.0,28.2,29.66,NE,45,8.0,13.0,60,0.00,,,-99.99,Weather View 32 v60,2013-02-26 06:30:00,
2013-02-26 01:35:00,41.0,28.6,29.66,ENE,67,6.0,13.0,61,0.00,,,-99.99,Weather View 32 v60,2013-02-26 06:35:00,
2013-02-26 01:40:00,41.0,28.6,29.65,ENE,67,7.0,13.0,61,0.00,,,-99.99,Weather View 32 v60,2013-02-26 06:40:00,
2013-02-26 01:45:00,41.0,28.6,29.65,NE,45,5.0,13.0,61,0.00,,,-99.99,Weather View 32 v60,2013-02-26 06:45:00,
2013-02-26 01:50:00,41.0,28.6,29.64,ENE,67,9.0,13.0,61,0.00,,,-99.99,Weather View 32 v60,2013-02-26 06:50:00,
2013-02-26 01:55:00,41.0,28.6,29.64,East,90,7.0,13.0,61,0.00,,,-99.99,Weather View 32 v60,2013-02-26 06:55:00,
2013-02-26 02:00:00,41.0,28.2,29.62,ENE,67,6.0,13.0,60,0.00,,,-99.99,Weather View 32 v60,2013-02-26 07:00:00,
2013-02-26 02:05:00,41.0,28.6,29.62,NE,45,7.0,13.0,61,0.00,,,-99.99,Weather View 32 v60,2013-02-26 07:05:00,
2013-02-26 02:10:00,41.0,28.6,29.62,ENE,67,12.0,13.0,61,0.00,,,-99.99,Weather View 32 v60,2013-02-26 07:10:00,
2013-02-26 02:15:00,41.0,29.0,29.62,ENE,67,10.0,13.0,62,0.00,,,-99.99,Weather View 32 v60,2013-02-26 07:15:00,
2013-02-26 02:20:00,41.0,29.4,29.61,East,90,9.0,14.0,63,0.00,,,-99.99,Weather View 32 v60,2013-02-26 07:20:00,
2013-02-26 02:25:00,41.0,29.7,29.61,East,90,8.0,14.0,64,0.00,,,-99.99,Weather View 32 v60,2013-02-26 07:25:00,
2013-02-26 02:30:00,41.0,29.7,29.60,East,90,9.0,15.0,64,0.00,,,-99.99,Weather View 32 v60,2013-02-26 07:30:00,
2013-02-26 02:35:00,41.0,30.1,29.60,ENE,67,9.0,15.0,65,0.00,,,-99.99,Weather View 32 v60,2013-02-26 07:35:00,
2013-02-26 02:40:00,41.0,30.5,29.59,NE,45,6.0,15.0,66,0.00,,,-99.99,Weather View 32 v60,2013-02-26 07:40:00,
2013-02-26 02:45:00,41.0,30.5,29.59,East,90,7.0,15.0,66,0.00,,,-99.99,Weather View 32 v60,2013-02-26 07:45:00,
2013-02-26 02:50:00,41.0,31.2,29.58,NE,45,4.0,15.0,68,0.00,,,-99.99,Weather View 32 v60,2013-02-26 07:50:00,
2013-02-26 02:55:00,41.0,31.2,29.58,ENE,67,8.0,15.0,68,0.00,,,-99.99,Weather View 32 v60,2013-02-26 07:55:00,
2013-02-26 03:00:00,41.0,30.9,29.58,East,90,7.0,15.0,67,0.00,,,-99.99,Weather View 32 v60,2013-02-26 08:00:00,
2013-02-26 03:05:00,41.0,30.5,29.58,East,90,10.0,15.0,66,0.00,,,-99.99,Weather View 32 v60,2013-02-26 08:05:00,
2013-02-26 03:10:00,41.0,30.5,29.56,ENE,67,9.0,15.0,66,0.00,,,-99.99,Weather View 32 v60,2013-02-26 08:10:00,
2013-02-26 03:15:00,42.0,31.5,29.56,NE,45,7.0,15.0,66,0.00,,,-99.99,Weather View 32 v60,2013-02-26 08:15:00,
2013-02-26 03:20:00,42.0,31.5,29.54,East,90,4.0,15.0,66,0.00,,,-99.99,Weather View 32 v60,2013-02-26 08:20:00,
2013-02-26 03:25:00,42.0,31.5,29.54,East,90,6.0,15.0,66,0.00,,,-99.99,Weather View 32 v60,2013-02-26 08:25:00,
2013-02-26 03:30:00,42.0,31.5,29.54,East,90,9.0,15.0,66,0.00,,,-99.99,Weather View 32 v60,2013-02-26 08:30:00,
2013-02-26 03:35:00,42.0,31.5,29.54,ENE,67,4.0,15.0,66,0.00,,,-99.99,Weather View 32 v60,2013-02-26 08:35:00,
2013-02-26 03:40:00,42.0,31.5,29.54,East,90,14.0,15.0,66,0.00,,,-99.99,Weather View 32 v60,2013-02-26 08:40:00,
2013-02-26 03:55:00,41.0,34.7,29.54,East,90,5.0,15.0,78,0.00,,,-99.99,Weather View 32 v60,2013-02-26 08:55:00,
2013-02-26 04:00:00,41.0,35.6,29.54,East,90,8.0,14.0,81,0.00,,,-99.99,Weather View 32 v60,2013-02-26 09:00:00,
2013-02-26 04:05:00,41.0,36.8,29.54,East,90,7.0,14.0,85,0.00,,,-99.99,Weather View 32 v60,2013-02-26 09:05:00,
2013-02-26 04:10:00,41.0,35.3,29.53,East,90,7.0,14.0,80,0.00,,,-99.99,Weather View 32 v60,2013-02-26 09:10:00,
2013-02-26 04:20:00,42.0,35.3,29.53,NE,45,6.0,14.0,77,0.00,,,-99.99,Weather View 32 v60,2013-02-26 09:20:00,
2013-02-26 04:30:00,42.0,35.6,29.53,NE,45,4.0,14.0,78,0.00,,,-99.99,Weather View 32 v60,2013-02-26 09:30:00,
2013-02-26 04:40:00,42.0,35.6,29.51,NE,45,4.0,14.0,78,0.00,,,-99.99,Weather View 32 v60,2013-02-26 09:40:00,
2013-02-26 04:44:00,42.0,31.8,29.54,ENE,67,3.0,15.0,67,0.00,,,-99.99,Weather View 32 v60,2013-02-26 09:44:00,
2013-02-26 04:45:00,42.0,35.0,29.51,ENE,67,5.0,13.0,76,0.00,,,-99.99,Weather View 32 v60,2013-02-26 09:45:00,
2013-02-26 05:14:00,41.0,35.3,29.53,NE,45,8.0,14.0,80,0.00,,,-99.99,Weather View 32 v60,2013-02-26 10:14:00,
2013-02-26 05:15:00,43.0,38.5,29.51,ENE,67,3.0,12.0,84,0.00,,,-99.99,Weather View 32 v60,2013-02-26 10:15:00,
2013-02-26 05:20:00,43.0,40.0,29.51,ENE,67,8.0,12.0,89,0.00,,,-99.99,Weather View 32 v60,2013-02-26 10:20:00,
2013-02-26 05:24:00,42.0,35.0,29.53,ENE,67,7.0,14.0,76,0.00,,,-99.99,Weather View 32 v60,2013-02-26 10:24:00,
2013-02-26 05:25:00,42.0,40.4,29.51,East,90,5.0,12.0,94,0.00,,,-99.99,Weather View 32 v60,2013-02-26 10:25:00,
2013-02-26 05:30:00,42.0,41.5,29.51,NE,45,3.0,11.0,98,0.00,,,-99.99,Weather View 32 v60,2013-02-26 10:30:00,
2013-02-26 05:34:00,42.0,35.6,29.53,ENE,67,8.0,14.0,78,0.00,,,-99.99,Weather View 32 v60,2013-02-26 10:34:00,
2013-02-26 05:49:00,43.0,36.3,29.51,NE,45,6.0,12.0,77,0.00,,,-99.99,Weather View 32 v60,2013-02-26 10:49:00,
2013-02-26 05:54:00,43.0,36.3,29.51,ENE,67,6.0,12.0,77,0.00,,,-99.99,Weather View 32 v60,2013-02-26 10:54:00,
2013-02-26 06:00:00,42.0,42.0,29.46,ENE,67,8.0,11.0,100,0.00,,,-99.99,Weather View 32 v60,2013-02-26 11:00:00,
2013-02-26 06:04:00,43.0,36.9,29.51,ENE,67,5.0,12.0,79,0.00,,,-99.99,Weather View 32 v60,2013-02-26 11:04:00,
2013-02-26 06:05:00,42.0,42.0,29.46,ENE,67,4.0,11.0,100,0.00,,,-99.99,Weather View 32 v60,2013-02-26 11:05:00,
2013-02-26 06:09:00,43.0,37.6,29.51,ENE,67,6.0,12.0,81,0.00,,,-99.99,Weather View 32 v60,2013-02-26 11:09:00,
2013-02-26 06:10:00,42.0,42.0,29.46,NE,45,7.0,11.0,100,0.00,,,-99.99,Weather View 32 v60,2013-02-26 11:10:00,
2013-02-26 06:25:00,42.0,42.0,29.46,East,90,6.0,11.0,100,0.00,,,-99.99,Weather View 32 v60,2013-02-26 11:25:00,
2013-02-26 06:34:00,42.0,41.7,29.51,ENE,67,5.0,11.0,99,0.00,,,-99.99,Weather View 32 v60,2013-02-26 11:34:00,
2013-02-26 06:39:00,42.0,42.0,29.49,NE,45,6.0,11.0,100,0.00,,,-99.99,Weather View 32 v60,2013-02-26 11:39:00,
2013-02-26 06:40:00,42.0,42.0,29.45,ENE,67,6.0,11.0,100,0.00,,,-99.99,Weather View 32 v60,2013-02-26 11:40:00,
2013-02-26 06:49:00,42.0,42.0,29.48,ENE,67,6.0,10.0,100,0.00,,,-99.99,Weather View 32 v60,2013-02-26 11:49:00,
2013-02-26 07:00:00,42.0,42.0,29.43,ENE,67,6.0,14.0,100,0.00,,,-99.99,Weather View 32 v60,2013-02-26 12:00:00,
2013-02-26 07:07:00,42.0,42.0,29.46,ENE,67,4.0,11.0,100,0.00,,,-99.99,Weather View 32 v60,2013-02-26 12:07:00,
2013-02-26 07:14:00,42.0,42.0,29.46,ENE,67,4.0,11.0,100,0.00,,,-99.99,Weather View 32 v60,2013-02-26 12:14:00,
2013-02-26 07:19:00,42.0,42.0,29.46,ENE,67,3.0,11.0,100,0.00,,,-99.99,Weather View 32 v60,2013-02-26 12:19:00,
2013-02-26 07:25:00,44.0,44.0,29.42,ENE,67,12.0,14.0,100,0.00,,,-99.99,Weather View 32 v60,2013-02-26 12:25:00,
2013-02-26 07:29:00,42.0,42.0,29.46,ENE,67,8.0,11.0,100,0.00,,,-99.99,Weather View 32 v60,2013-02-26 12:29:00,
2013-02-26 07:44:00,42.0,42.0,29.45,ENE,67,6.0,11.0,100,0.00,,,-99.99,Weather View 32 v60,2013-02-26 12:44:00,
2013-02-26 07:54:00,42.0,42.0,29.44,ENE,67,7.0,14.0,100,0.00,,,-99.99,Weather View 32 v60,2013-02-26 12:54:00,
2013-02-26 08:04:00,42.0,42.0,29.43,East,90,5.0,14.0,100,0.00,,,-99.99,Weather View 32 v60,2013-02-26 13:04:00,
2013-02-26 08:14:00,43.0,43.0,29.43,ENE,67,6.0,14.0,100,0.00,,,-99.99,Weather View 32 v60,2013-02-26 13:14:00,
2013-02-26 08:29:00,44.0,44.0,29.41,NE,45,5.0,14.0,100,0.00,,,-99.99,Weather View 32 v60,2013-02-26 13:29:00,
2013-02-26 08:39:00,45.0,45.0,29.40,East,90,7.0,14.0,100,0.00,,,-99.99,Weather View 32 v60,2013-02-26 13:39:00,
2013-02-26 08:44:00,45.0,45.0,29.40,East,90,8.0,14.0,100,0.00,,,-99.99,Weather View 32 v60,2013-02-26 13:44:00,
2013-02-26 08:54:00,46.0,46.0,29.40,East,90,6.0,13.0,100,0.00,,,-99.99,Weather View 32 v60,2013-02-26 13:54:00,
2013-02-26 09:04:00,46.0,46.0,29.40,East,90,4.0,13.0,100,0.00,,,-99.99,Weather View 32 v60,2013-02-26 14:04:00,
2013-02-26 09:09:00,46.0,46.0,29.42,East,90,5.0,13.0,100,0.00,,,-99.99,Weather View 32 v60,2013-02-26 14:09:00,
2013-02-26 09:19:00,47.0,47.0,29.42,East,90,5.0,12.0,100,0.00,,,-99.99,Weather View 32 v60,2013-02-26 14:19:00,
2013-02-26 09:29:00,48.0,48.0,29.40,East,90,5.0,12.0,100,0.00,,,-99.99,Weather View 32 v60,2013-02-26 14:29:00,
2013-02-26 09:39:00,48.0,48.0,29.40,East,90,8.0,12.0,100,0.00,,,-99.99,Weather View 32 v60,2013-02-26 14:39:00,
2013-02-26 09:44:00,48.0,48.0,29.40,East,90,3.0,12.0,100,0.00,,,-99.99,Weather View 32 v60,2013-02-26 14:44:00,
2013-02-26 09:49:00,49.0,49.0,29.39,East,90,4.0,12.0,100,0.00,,,-99.99,Weather View 32 v60,2013-02-26 14:49:00,
2013-02-26 09:59:00,50.0,50.0,29.38,East,90,9.0,11.0,100,0.00,,,-99.99,Weather View 32 v60,2013-02-26 14:59:00,
2013-02-26 10:00:00,53.0,53.0,29.35,East,90,9.0,14.0,100,0.00,,,-99.99,Weather View 32 v60,2013-02-26 15:00:00,
2013-02-26 10:09:00,51.0,51.0,29.38,East,90,11.0,11.0,100,0.00,,,-99.99,Weather View 32 v60,2013-02-26 15:09:00,
2013-02-26 10:14:00,52.0,52.0,29.37,East,90,5.0,12.0,100,0.00,,,-99.99,Weather View 32 v60,2013-02-26 15:14:00,
2013-02-26 10:19:00,53.0,53.0,29.36,East,90,6.0,14.0,100,0.00,,,-99.99,Weather View 32 v60,2013-02-26 15:19:00,
2013-02-26 10:29:00,53.0,53.0,29.35,East,90,11.0,14.0,100,0.00,,,-99.99,Weather View 32 v60,2013-02-26 15:29:00,
2013-02-26 10:39:00,52.0,52.0,29.34,East,90,5.0,14.0,100,0.00,,,-99.99,Weather View 32 v60,2013-02-26 15:39:00,
2013-02-26 10:53:00,52.0,52.0,29.35,East,90,6.0,14.0,100,0.00,,,-99.99,Weather View 32 v60,2013-02-26 15:53:00,
2013-02-26 10:59:00,53.0,53.0,29.35,East,90,9.0,14.0,100,0.00,,,-99.99,Weather View 32 v60,2013-02-26 15:59:00,
2013-02-26 22:30:00,38.0,38.0,29.52,West,270,9.0,10.0,100,0.00,,,-99.99,Weather View 32 v60,2013-02-27 03:30:00,
2013-02-26 22:35:00,38.0,38.0,29.52,SW,225,18.0,18.0,100,0.00,,,-99.99,Weather View 32 v60,2013-02-27 03:35:00,
2013-02-26 22:40:00,38.0,38.0,29.52,WSW,247,10.0,18.0,100,0.00,,,-99.99,Weather View 32 v60,2013-02-27 03:40:00,
2013-02-26 22:45:00,38.0,38.0,29.52,SW,225,8.0,18.0,100,0.00,,,-99.99,Weather View 32 v60,2013-02-27 03:45:00,
2013-02-26 22:50:00,38.0,38.0,29.52,SW,225,7.0,18.0,100,0.00,,,-99.99,Weather View 32 v60,2013-02-27 03:50:00,
2013-02-26 22:55:00,38.0,38.0,29.52,WSW,247,15.0,18.0,100,0.00,,,-99.99,Weather View 32 v60,2013-02-27 03:55:00,
2013-02-26 23:00:00,38.0,38.0,29.53,SW,225,10.0,18.0,100,0.00,,,-99.99,Weather View 32 v60,2013-02-27 04:00:00,
2013-02-26 23:05:00,38.0,38.0,29.53,WSW,247,8.0,21.0,100,0.00,,,-99.99,Weather View 32 v60,2013-02-27 04:05:00,
2013-02-26 23:10:00,38.0,38.0,29.53,SW,225,9.0,21.0,100,0.00,,,-99.99,Weather View 32 v60,2013-02-27 04:10:00,
2013-02-26 23:20:00,38.0,38.0,29.54,SW,225,13.0,21.0,100,0.00,,,-99.99,Weather View 32 v60,2013-02-27 04:20:00,
2013-02-26 23:25:00,38.0,38.0,29.54,SW,225,14.0,21.0,100,0.00,,,-99.99,Weather View 32 v60,2013-02-27 04:25:00,
2013-02-26 23:30:00,38.0,38.0,29.53,SW,225,10.0,21.0,100,0.00,,,-99.99,Weather View 32 v60,2013-02-27 04:30:00,
2013-02-26 23:35:00,38.0,38.0,29.53,WSW,247,13.0,21.0,100,0.00,,,-99.99,Weather View 32 v60,2013-02-27 04:35:00,
2013-02-26 23:40:00,38.0,38.0,29.53,SW,225,8.0,21.0,100,0.00,,,-99.99,Weather View 32 v60,2013-02-27 04:40:00,
2013-02-26 23:45:00,38.0,38.0,29.53,WSW,247,5.0,21.0,100,0.00,,,-99.99,Weather View 32 v60,2013-02-27 04:45:00,
2013-02-26 23:50:00,38.0,38.0,29.54,SW,225,8.0,21.0,100,0.00,,,-99.99,Weather View 32 v60,2013-02-27 04:50:00,
2013-02-26 23:55:00,38.0,38.0,29.54,SW,225,10.0,21.0,100,0.00,,,-99.99,Weather View 32 v60,2013-02-27 04:55:00,